Main page
METAR-TAF:

METAR-TAF

Airports :

Lycksele Airport

Lycksele, Sweden

latitude: 64-32-51N, longitude: 018-43-03E, elevation: 211 m

Current weather observation

The report was made 32 minutes ago, at 22:50 UTC
Calm wind
Temperature -11°C
Humidity 85%
Pressure 971 hPa
Visibility 10 km or more

METAR: ESNL 172250Z AUTO 00000KT 9999 FEW001/// M11/M13 Q0971

Time: 00:22 (23:22 UTC)


TAF: missing

Weather observations and forecasts of more than 4000 airports (METAR and TAF reports).

The available stations are represented by yellow and red dots on the map.

Hover mouse over dot to see the name of the station.

Then click to see weather observations and forecasts.

To change the map : click on the green buttons with a black cross to zoom in, on the green button with a dash to zoom out, or on the green arrows for adjacent maps.


METAR-TAF: